createdAt,value
2022-08-18T00:00:54.796Z,4.60
2022-08-18T00:01:54.193Z,4.30
2022-08-18T00:02:54.492Z,4.30
2022-08-18T00:03:59.654Z,4.60
2022-08-18T00:04:57.270Z,4.60
2022-08-18T00:05:55.224Z,4.20
2022-08-18T00:06:56.384Z,4.60
2022-08-18T00:07:55.755Z,4.60
2022-08-18T00:08:56.096Z,4.80
2022-08-18T00:09:56.395Z,4.30
2022-08-18T00:10:56.714Z,4.20
2022-08-18T00:11:57.071Z,4.30
2022-08-18T00:12:58.851Z,4.60
2022-08-18T00:13:57.491Z,4.40
2022-08-18T00:14:57.808Z,4.60
2022-08-18T00:15:58.116Z,4.70
2022-08-18T00:16:58.432Z,4.70
2022-08-18T00:17:58.740Z,5.00
2022-08-18T00:18:59.071Z,4.20
2022-08-18T00:19:59.381Z,4.50
2022-08-18T00:20:59.693Z,4.70
2022-08-18T00:22:00.029Z,4.30
2022-08-18T00:23:00.333Z,4.30
2022-08-18T00:24:00.653Z,4.60
2022-08-18T00:25:00.972Z,4.40
2022-08-18T00:26:01.284Z,4.70
2022-08-18T00:27:01.603Z,5.30
2022-08-18T00:28:01.942Z,4.70
2022-08-18T00:29:02.294Z,4.60
2022-08-18T00:30:02.487Z,4.30
2022-08-18T00:31:02.806Z,4.90
2022-08-18T00:32:03.114Z,4.40
2022-08-18T00:33:03.436Z,4.90
2022-08-18T00:34:03.756Z,4.90
2022-08-18T00:35:04.076Z,4.40
2022-08-18T00:36:04.395Z,4.90
2022-08-18T00:37:04.733Z,4.60
2022-08-18T00:38:05.029Z,4.90
2022-08-18T00:39:05.359Z,4.50
2022-08-18T00:40:05.740Z,4.90
2022-08-18T00:41:05.956Z,5.10
2022-08-18T00:42:06.261Z,4.90
2022-08-18T00:43:06.569Z,4.80
2022-08-18T00:44:06.902Z,4.80
2022-08-18T00:45:07.218Z,4.30
2022-08-18T00:46:07.523Z,4.50
2022-08-18T00:47:07.842Z,4.60
2022-08-18T00:48:08.154Z,4.80
2022-08-18T00:49:08.483Z,4.70
2022-08-18T00:50:08.792Z,5.00
2022-08-18T00:51:10.082Z,4.90
2022-08-18T00:52:09.316Z,4.60
2022-08-18T00:53:09.633Z,4.70
2022-08-18T00:54:09.965Z,4.60
2022-08-18T00:55:10.267Z,5.00
2022-08-18T00:56:11.459Z,5.00
2022-08-18T00:57:10.835Z,4.80
2022-08-18T00:58:11.157Z,5.40
2022-08-18T00:59:11.540Z,4.80
2022-08-18T01:00:11.783Z,5.10
2022-08-18T01:01:11.959Z,4.80
2022-08-18T01:02:12.290Z,5.20
2022-08-18T01:03:12.621Z,4.80
2022-08-18T01:04:12.934Z,4.70
2022-08-18T01:05:13.232Z,5.20
2022-08-18T01:06:13.571Z,4.70
2022-08-18T01:07:13.851Z,4.70
2022-08-18T01:08:14.178Z,4.30
2022-08-18T01:09:14.491Z,4.80
2022-08-18T01:10:14.823Z,5.50
2022-08-18T01:11:15.154Z,4.60
2022-08-18T01:12:45.279Z,4.90
2022-08-18T01:13:16.761Z,5.40
2022-08-18T01:14:16.026Z,5.60
2022-08-18T01:15:28.473Z,4.70
2022-08-18T01:16:17.615Z,5.20
2022-08-18T01:17:16.865Z,4.90
2022-08-18T01:18:17.185Z,4.80
2022-08-18T01:19:17.522Z,5.00
2022-08-18T01:20:17.818Z,4.70
2022-08-18T01:21:18.127Z,4.80
2022-08-18T01:22:18.451Z,5.10
2022-08-18T01:23:18.778Z,5.30
2022-08-18T01:24:21.856Z,5.20
2022-08-18T01:25:19.348Z,5.20
2022-08-18T01:26:19.668Z,4.90
2022-08-18T01:27:19.971Z,4.80
2022-08-18T01:28:20.330Z,4.90
2022-08-18T01:29:20.516Z,4.80
2022-08-18T01:30:20.832Z,5.00
2022-08-18T01:31:21.133Z,4.90
2022-08-18T01:32:21.455Z,4.90
2022-08-18T01:33:21.789Z,5.30
2022-08-18T01:34:23.074Z,5.20
2022-08-18T01:35:22.324Z,5.40
2022-08-18T01:36:22.654Z,5.60
2022-08-18T01:37:22.976Z,5.10
2022-08-18T01:38:23.293Z,5.10
2022-08-18T01:41:21.122Z,5.10
2022-08-18T01:41:22.759Z,5.50
2022-08-18T01:41:30.489Z,5.30
2022-08-18T01:42:25.549Z,5.20
2022-08-18T01:43:24.796Z,5.10
2022-08-18T01:44:25.120Z,5.10
2022-08-18T01:45:25.437Z,5.50
2022-08-18T01:46:25.792Z,5.50
2022-08-18T01:47:26.087Z,5.10
2022-08-18T01:48:26.421Z,5.40
2022-08-18T01:49:26.730Z,5.30
2022-08-18T01:50:27.038Z,5.30
2022-08-18T01:51:40.279Z,5.50
2022-08-18T01:52:28.651Z,5.20
2022-08-18T01:53:27.912Z,5.20
2022-08-18T01:54:28.230Z,5.60
2022-08-18T01:55:28.566Z,5.40
2022-08-18T01:56:28.882Z,5.10
2022-08-18T01:57:29.195Z,5.80
2022-08-18T01:58:31.718Z,5.10
2022-08-18T01:59:29.772Z,5.30
2022-08-18T02:00:30.077Z,5.40
2022-08-18T02:01:36.200Z,5.50
2022-08-18T02:02:31.675Z,5.50
2022-08-18T02:03:30.948Z,5.20
2022-08-18T02:04:36.011Z,5.50
2022-08-18T02:05:32.539Z,5.20
2022-08-18T02:06:33.590Z,5.50
2022-08-18T02:07:36.375Z,5.40
2022-08-18T02:08:32.383Z,5.40
2022-08-18T02:09:32.626Z,5.70
2022-08-18T02:10:32.881Z,5.80
2022-08-18T02:11:33.186Z,5.70
2022-08-18T02:12:33.500Z,5.50
2022-08-18T02:13:33.829Z,5.90
2022-08-18T02:14:34.168Z,5.70
2022-08-18T02:15:34.471Z,5.60
2022-08-18T02:16:34.790Z,5.70
2022-08-18T02:17:35.118Z,5.30
2022-08-18T02:18:47.702Z,6.20
2022-08-18T02:19:36.748Z,5.50
2022-08-18T02:20:35.973Z,5.60
2022-08-18T02:21:36.283Z,5.70
2022-08-18T02:22:36.601Z,5.60
2022-08-18T02:23:36.923Z,5.20
2022-08-18T02:24:37.235Z,5.40
2022-08-18T02:25:37.552Z,5.40
2022-08-18T02:26:37.855Z,6.00
2022-08-18T02:27:38.167Z,5.70
2022-08-18T02:28:38.507Z,5.10
2022-08-18T02:29:38.808Z,5.50
2022-08-18T02:30:39.120Z,5.90
2022-08-18T02:31:39.421Z,5.20
2022-08-18T02:32:39.733Z,5.20
2022-08-18T02:33:40.052Z,5.60
2022-08-18T02:34:41.331Z,5.50
2022-08-18T02:35:40.578Z,5.40
2022-08-18T02:36:40.886Z,5.10
2022-08-18T02:37:42.059Z,5.60
2022-08-18T02:38:41.504Z,5.60
2022-08-18T02:39:41.783Z,5.80
2022-08-18T02:40:42.083Z,5.40
2022-08-18T02:41:42.396Z,5.90
2022-08-18T02:42:42.709Z,5.50
2022-08-18T02:43:43.036Z,5.60
2022-08-18T02:44:43.349Z,5.70
2022-08-18T02:45:43.657Z,5.90
2022-08-18T02:46:43.982Z,5.80
2022-08-18T02:47:44.484Z,5.80
2022-08-18T02:48:44.669Z,5.80
2022-08-18T02:49:44.839Z,5.80
2022-08-18T02:50:45.157Z,5.60
2022-08-18T02:51:45.459Z,6.20
2022-08-18T02:52:45.811Z,6.20
2022-08-18T02:53:46.135Z,6.00
2022-08-18T02:54:46.460Z,6.50
2022-08-18T02:55:46.684Z,6.20
2022-08-18T02:56:47.018Z,6.00
2022-08-18T02:57:47.356Z,6.40
2022-08-18T02:58:47.677Z,6.50
2022-08-18T02:59:48.455Z,5.90
2022-08-18T03:00:48.262Z,5.80
2022-08-18T03:01:48.660Z,6.30
2022-08-18T03:02:48.872Z,6.50
2022-08-18T03:03:49.181Z,5.90
2022-08-18T03:04:49.488Z,5.80
2022-08-18T03:05:49.805Z,6.00
2022-08-18T03:06:50.117Z,5.80
2022-08-18T03:07:50.790Z,5.70
2022-08-18T03:08:50.727Z,5.90
2022-08-18T03:09:51.047Z,5.90
2022-08-18T03:10:51.374Z,6.00
2022-08-18T03:11:51.690Z,5.90
2022-08-18T03:12:51.999Z,5.80
2022-08-18T03:13:52.319Z,5.50
2022-08-18T03:14:52.634Z,5.70
2022-08-18T03:15:56.730Z,5.70
2022-08-18T03:16:54.441Z,5.50
2022-08-18T03:17:53.719Z,5.90
2022-08-18T03:18:53.960Z,6.30
2022-08-18T03:19:54.282Z,5.80
2022-08-18T03:20:54.593Z,6.30
2022-08-18T03:21:54.907Z,6.20
2022-08-18T03:22:55.215Z,6.10
2022-08-18T03:24:00.240Z,6.20
2022-08-18T03:24:56.834Z,6.00
2022-08-18T03:25:56.081Z,6.30
2022-08-18T03:26:56.393Z,6.40
2022-08-18T03:27:56.695Z,6.40
2022-08-18T03:28:57.035Z,6.10
2022-08-18T03:29:58.883Z,6.60
2022-08-18T03:30:57.611Z,6.40
2022-08-18T03:31:57.931Z,6.30
2022-08-18T03:32:58.266Z,6.30
2022-08-18T03:33:59.350Z,6.30
2022-08-18T03:34:58.897Z,6.30
2022-08-18T03:35:59.227Z,6.30
2022-08-18T03:36:59.549Z,6.00
2022-08-18T03:37:59.880Z,6.20
2022-08-18T03:39:00.222Z,5.90
2022-08-18T03:40:00.607Z,6.40
2022-08-18T03:41:00.848Z,6.70
2022-08-18T03:42:02.064Z,6.20
2022-08-18T03:43:02.190Z,6.20
2022-08-18T03:44:01.920Z,6.50
2022-08-18T03:45:13.237Z,6.30
2022-08-18T03:46:03.374Z,5.80
2022-08-18T03:47:02.649Z,6.10
2022-08-18T03:48:02.963Z,6.50
2022-08-18T03:49:03.324Z,6.10
2022-08-18T03:50:03.543Z,6.40
2022-08-18T03:51:05.481Z,6.80
2022-08-18T03:52:04.215Z,6.40
2022-08-18T03:53:04.587Z,6.40
2022-08-18T03:54:04.804Z,6.30
2022-08-18T03:55:05.146Z,6.50
2022-08-18T03:56:05.484Z,6.50
2022-08-18T03:57:05.828Z,6.60
2022-08-18T03:58:06.185Z,6.50
2022-08-18T03:59:06.536Z,7.00
2022-08-18T04:00:06.750Z,6.40
2022-08-18T04:01:07.170Z,6.40
2022-08-18T04:02:07.382Z,6.40
2022-08-18T04:03:07.620Z,6.40
2022-08-18T04:04:07.860Z,6.20
2022-08-18T04:05:08.111Z,7.20
2022-08-18T04:06:12.464Z,6.50
2022-08-18T04:07:08.711Z,6.60
2022-08-18T04:08:08.942Z,6.70
2022-08-18T04:09:09.233Z,6.30
2022-08-18T04:10:17.035Z,6.70
2022-08-18T04:11:10.790Z,6.10
2022-08-18T04:12:10.077Z,6.20
2022-08-18T04:13:11.375Z,6.20
2022-08-18T04:14:10.673Z,6.30
2022-08-18T04:15:10.921Z,6.50
2022-08-18T04:16:11.132Z,6.50
2022-08-18T04:17:11.496Z,7.10
2022-08-18T04:18:11.917Z,7.80
2022-08-18T04:19:12.023Z,6.90
2022-08-18T04:20:12.281Z,6.70
2022-08-18T04:21:12.472Z,7.40
2022-08-18T04:22:17.547Z,7.50
2022-08-18T04:23:14.140Z,6.80
2022-08-18T04:24:13.430Z,7.40
2022-08-18T04:25:13.689Z,6.60
2022-08-18T04:26:19.139Z,7.20
2022-08-18T04:27:15.201Z,6.80
2022-08-18T04:28:14.491Z,6.80
2022-08-18T04:29:14.764Z,6.60
2022-08-18T04:30:14.972Z,7.40
2022-08-18T04:31:15.348Z,7.20
2022-08-18T04:32:15.572Z,6.90
2022-08-18T04:33:15.800Z,6.90
2022-08-18T04:34:16.182Z,6.70
2022-08-18T04:35:16.422Z,6.90
2022-08-18T04:36:20.495Z,6.90
2022-08-18T04:37:16.956Z,7.00
2022-08-18T04:38:17.195Z,6.80
2022-08-18T04:39:17.472Z,6.60
2022-08-18T04:40:22.837Z,7.30
2022-08-18T04:41:19.026Z,6.70
2022-08-18T04:42:18.335Z,6.50
2022-08-18T04:43:18.566Z,6.40
2022-08-18T04:44:18.817Z,6.30
2022-08-18T04:45:19.057Z,7.00
2022-08-18T04:46:19.297Z,6.90
2022-08-18T04:47:19.517Z,6.20
2022-08-18T04:48:19.757Z,6.60
2022-08-18T04:49:20.086Z,6.60
2022-08-18T04:50:20.329Z,6.80
2022-08-18T04:52:26.847Z,6.00
2022-08-18T04:52:40.629Z,6.60
2022-08-18T04:53:22.110Z,6.10
2022-08-18T04:54:21.431Z,6.40
2022-08-18T04:55:21.665Z,6.20
2022-08-18T04:56:21.901Z,6.40
2022-08-18T04:57:22.131Z,6.60
2022-08-18T04:58:22.364Z,6.30
2022-08-18T04:59:22.616Z,6.40
2022-08-18T05:00:22.852Z,6.70
2022-08-18T05:01:23.196Z,6.60
2022-08-18T05:02:24.267Z,6.30
2022-08-18T05:03:23.634Z,6.40
2022-08-18T05:04:23.892Z,6.20
2022-08-18T05:05:24.133Z,6.80
2022-08-18T05:06:24.375Z,6.40
2022-08-18T05:07:24.605Z,6.60
2022-08-18T05:08:24.865Z,6.20
2022-08-18T05:09:25.107Z,6.50
2022-08-18T05:10:25.368Z,7.00
2022-08-18T05:11:25.636Z,6.70
2022-08-18T05:12:26.625Z,6.10
2022-08-18T05:13:26.206Z,6.30
2022-08-18T05:14:26.463Z,6.20
2022-08-18T05:15:26.698Z,7.00
2022-08-18T05:16:27.601Z,6.60
2022-08-18T05:17:27.160Z,6.90
2022-08-18T05:18:27.421Z,6.30
2022-08-18T05:19:27.682Z,6.80
2022-08-18T05:20:27.931Z,6.30
2022-08-18T05:21:28.154Z,6.70
2022-08-18T05:22:31.164Z,6.70
2022-08-18T05:23:28.639Z,7.00
2022-08-18T05:24:34.058Z,6.40
2022-08-18T05:25:30.193Z,7.20
2022-08-18T05:26:29.487Z,6.80
2022-08-18T05:27:30.538Z,6.60
2022-08-18T05:28:29.956Z,6.50
2022-08-18T05:29:30.225Z,6.60
2022-08-18T05:30:30.465Z,6.80
2022-08-18T05:31:30.715Z,6.70
2022-08-18T05:32:46.875Z,6.40
2022-08-18T05:33:32.307Z,6.30
2022-08-18T05:34:31.609Z,6.20
2022-08-18T05:35:31.869Z,5.80
2022-08-18T05:36:32.146Z,6.60
2022-08-18T05:37:35.516Z,6.60
2022-08-18T05:38:32.670Z,6.90
2022-08-18T05:39:32.970Z,6.70
2022-08-18T05:40:33.208Z,6.30
2022-08-18T05:41:33.434Z,6.10
2022-08-18T05:42:33.684Z,6.80
2022-08-18T05:43:34.002Z,6.50
2022-08-18T05:44:34.325Z,6.40
2022-08-18T05:45:34.574Z,6.00
2022-08-18T05:46:34.848Z,7.20
2022-08-18T05:47:35.179Z,6.50
2022-08-18T05:48:37.624Z,6.40
2022-08-18T05:49:36.676Z,6.50
2022-08-18T05:50:35.867Z,6.20
2022-08-18T05:51:36.136Z,6.20
2022-08-18T05:52:36.451Z,6.60
2022-08-18T05:53:36.726Z,6.10
2022-08-18T05:54:37.020Z,6.10
2022-08-18T05:55:37.259Z,6.80
2022-08-18T05:56:37.623Z,5.80
2022-08-18T05:57:37.893Z,6.70
2022-08-18T05:58:38.179Z,6.40
2022-08-18T05:59:38.469Z,6.50
2022-08-18T06:00:38.743Z,6.40
2022-08-18T06:01:38.984Z,6.10
2022-08-18T06:02:39.299Z,6.20
2022-08-18T06:03:45.127Z,6.30
2022-08-18T06:04:40.823Z,6.10
2022-08-18T06:05:40.144Z,6.00
2022-08-18T06:06:44.128Z,5.80
2022-08-18T06:07:41.757Z,5.80
2022-08-18T06:08:41.135Z,6.30
2022-08-18T06:09:41.417Z,6.40
2022-08-18T06:10:41.677Z,6.10
2022-08-18T06:11:41.950Z,6.20
2022-08-18T06:12:46.660Z,5.90
2022-08-18T06:13:44.320Z,5.90
2022-08-18T06:14:42.882Z,6.20
2022-08-18T06:15:43.504Z,5.60
2022-08-18T06:16:44.477Z,6.00
2022-08-18T06:17:43.808Z,6.00
2022-08-18T06:18:43.931Z,5.40
2022-08-18T06:19:44.204Z,5.50
2022-08-18T06:20:44.465Z,6.70
2022-08-18T06:21:44.702Z,6.50
2022-08-18T06:22:48.091Z,6.30
2022-08-18T06:23:46.304Z,5.90
2022-08-18T06:24:45.627Z,5.80
2022-08-18T06:25:45.880Z,5.80
2022-08-18T06:26:46.137Z,6.40
2022-08-18T06:27:46.458Z,6.20
2022-08-18T06:28:46.635Z,6.20
2022-08-18T06:29:46.895Z,6.30
2022-08-18T06:30:47.145Z,6.40
2022-08-18T06:31:47.378Z,5.70
2022-08-18T06:32:47.626Z,6.20
2022-08-18T06:33:47.881Z,5.60
2022-08-18T06:34:48.151Z,6.40
2022-08-18T06:35:48.509Z,6.30
2022-08-18T06:36:48.632Z,6.00
2022-08-18T06:37:48.888Z,6.10
2022-08-18T06:38:49.149Z,5.60
2022-08-18T06:39:49.429Z,6.10
2022-08-18T06:40:49.693Z,6.20
2022-08-18T06:41:49.944Z,6.80
2022-08-18T06:42:50.175Z,6.70
2022-08-18T06:43:50.423Z,6.30
2022-08-18T06:44:50.666Z,6.50
2022-08-18T06:45:50.908Z,6.10
2022-08-18T06:46:53.551Z,6.20
2022-08-18T06:47:51.559Z,6.40
2022-08-18T06:48:51.765Z,6.40
2022-08-18T06:49:51.990Z,6.20
2022-08-18T06:50:52.229Z,6.20
2022-08-18T06:51:52.466Z,6.00
2022-08-18T06:52:52.690Z,6.30
2022-08-18T06:53:52.939Z,6.50
2022-08-18T06:54:53.165Z,6.20
2022-08-18T06:55:53.382Z,5.90
2022-08-18T06:56:53.741Z,6.20
2022-08-18T06:57:54.057Z,6.70
2022-08-18T06:58:54.300Z,6.00
2022-08-18T06:59:54.523Z,6.10
2022-08-18T07:00:56.358Z,6.20
2022-08-18T07:01:55.106Z,5.60
2022-08-18T07:02:55.338Z,6.30
2022-08-18T07:03:55.578Z,6.90
2022-08-18T07:04:55.809Z,5.90
2022-08-18T07:05:56.040Z,6.10
2022-08-18T07:06:56.276Z,5.90
2022-08-18T07:07:56.998Z,6.20
2022-08-18T07:08:56.806Z,5.80
2022-08-18T07:09:57.036Z,6.50
2022-08-18T07:10:57.419Z,5.40
2022-08-18T07:11:57.657Z,5.80
2022-08-18T07:12:57.898Z,6.00
2022-08-18T07:14:15.450Z,6.00
2022-08-18T07:14:59.451Z,6.30
2022-08-18T07:15:58.730Z,6.20
2022-08-18T07:16:59.946Z,5.60
2022-08-18T07:17:59.244Z,5.40
2022-08-18T07:18:59.500Z,5.70
2022-08-18T07:19:59.721Z,5.00
2022-08-18T07:20:59.963Z,5.90
2022-08-18T07:22:00.182Z,6.10
2022-08-18T07:23:00.420Z,6.00
2022-08-18T07:24:23.126Z,5.50
2022-08-18T07:25:05.272Z,6.00
2022-08-18T07:26:01.315Z,6.00
2022-08-18T07:27:01.551Z,5.20
2022-08-18T07:28:01.777Z,5.30
2022-08-18T07:29:02.020Z,5.90
2022-08-18T07:30:02.248Z,5.80
2022-08-18T07:31:16.307Z,5.20
2022-08-18T07:32:03.799Z,5.10
2022-08-18T07:33:03.088Z,4.90
2022-08-18T07:34:03.339Z,5.40
2022-08-18T07:35:03.573Z,5.30
2022-08-18T07:36:03.790Z,5.80
2022-08-18T07:37:04.152Z,5.40
2022-08-18T07:38:24.659Z,6.00
2022-08-18T07:39:05.822Z,5.70
2022-08-18T07:40:05.019Z,6.00
2022-08-18T07:41:05.273Z,5.60
2022-08-18T07:42:05.504Z,5.60
2022-08-18T07:43:05.734Z,5.30
2022-08-18T07:44:09.855Z,5.10
2022-08-18T07:45:07.286Z,5.40
2022-08-18T07:46:06.575Z,5.70
2022-08-18T07:47:06.810Z,5.60
2022-08-18T07:48:27.288Z,5.60
2022-08-18T07:49:08.356Z,5.50
2022-08-18T07:50:27.300Z,5.50
2022-08-18T07:51:09.166Z,5.90
2022-08-18T07:52:36.076Z,5.90
2022-08-18T07:53:09.628Z,6.30
2022-08-18T07:54:16.529Z,6.40
2022-08-18T07:55:10.164Z,5.60
2022-08-18T07:56:09.477Z,5.80
2022-08-18T07:57:09.739Z,6.30
2022-08-18T07:58:09.990Z,6.00
2022-08-18T07:59:10.285Z,5.50
2022-08-18T08:00:17.447Z,5.80
2022-08-18T08:01:11.762Z,5.30
2022-08-18T08:02:11.135Z,6.10
2022-08-18T08:03:11.436Z,5.40
2022-08-18T08:04:25.454Z,5.90
2022-08-18T08:05:13.118Z,6.00
2022-08-18T08:06:12.265Z,5.80
2022-08-18T08:07:27.963Z,5.70
2022-08-18T08:08:13.869Z,5.70
2022-08-18T08:09:13.208Z,5.70
2022-08-18T08:10:13.481Z,5.30
2022-08-18T08:11:13.738Z,6.30
2022-08-18T08:12:14.010Z,5.90
2022-08-18T08:13:16.982Z,5.60
2022-08-18T08:14:16.222Z,5.80
2022-08-18T08:15:14.861Z,6.00
2022-08-18T08:16:15.129Z,5.80
2022-08-18T08:17:15.400Z,5.50
2022-08-18T08:18:16.417Z,5.90
2022-08-18T08:19:16.014Z,6.00
2022-08-18T08:20:17.071Z,5.70
2022-08-18T08:21:16.504Z,5.50
2022-08-18T08:22:16.775Z,6.40
2022-08-18T08:23:17.037Z,6.60
2022-08-18T08:24:17.356Z,6.00
2022-08-18T08:25:42.938Z,6.60
2022-08-18T08:26:18.803Z,7.20
2022-08-18T08:27:18.907Z,7.70
2022-08-18T08:28:18.370Z,7.20
2022-08-18T08:29:18.666Z,6.20
2022-08-18T08:30:18.959Z,6.40
2022-08-18T08:31:36.143Z,6.60
2022-08-18T08:32:20.523Z,6.40
2022-08-18T08:33:19.711Z,6.30
2022-08-18T08:34:20.039Z,6.40
2022-08-18T08:35:48.660Z,5.90
2022-08-18T08:36:21.661Z,6.00
2022-08-18T08:37:20.990Z,5.80
2022-08-18T08:38:40.068Z,5.70
2022-08-18T08:39:22.602Z,6.00
2022-08-18T08:40:22.056Z,5.60
2022-08-18T08:41:22.156Z,6.10
2022-08-18T08:42:31.954Z,6.00
2022-08-18T08:43:23.644Z,5.60
2022-08-18T08:44:22.986Z,5.50
2022-08-18T08:45:23.261Z,5.60
2022-08-18T08:46:23.528Z,5.70
2022-08-18T08:47:23.795Z,6.20
2022-08-18T08:48:24.069Z,6.00
2022-08-18T08:49:24.346Z,5.80
2022-08-18T08:50:24.637Z,5.70
2022-08-18T08:51:24.903Z,5.50
2022-08-18T08:52:26.238Z,5.90
2022-08-18T08:53:25.580Z,5.90
2022-08-18T08:54:25.854Z,5.90
2022-08-18T08:55:26.121Z,5.90
2022-08-18T08:56:26.402Z,6.30
2022-08-18T08:57:26.653Z,5.30
2022-08-18T08:58:26.952Z,6.00
2022-08-18T08:59:27.193Z,5.80
2022-08-18T09:00:27.464Z,5.70
2022-08-18T09:01:27.775Z,6.00
2022-08-18T09:03:30.192Z,6.20
2022-08-18T09:04:28.596Z,6.00
2022-08-18T09:05:28.870Z,6.20
2022-08-18T09:06:29.138Z,6.10
2022-08-18T09:08:35.101Z,5.90
2022-08-18T09:09:35.142Z,5.90
2022-08-18T09:10:35.404Z,5.90
2022-08-18T09:11:35.646Z,6.90
2022-08-18T09:12:35.917Z,5.70
2022-08-18T09:13:36.204Z,5.80
2022-08-18T09:14:36.394Z,5.90
2022-08-18T09:15:36.639Z,6.50
2022-08-18T09:16:36.884Z,5.70
2022-08-18T09:17:37.149Z,5.90
2022-08-18T09:18:37.416Z,6.10
2022-08-18T09:19:37.676Z,6.00
2022-08-18T09:20:37.909Z,5.80
2022-08-18T09:21:38.169Z,5.80
2022-08-18T09:22:38.410Z,5.70
2022-08-18T09:23:38.669Z,5.60
2022-08-18T09:24:39.076Z,5.80
2022-08-18T09:25:39.376Z,6.40
2022-08-18T09:26:39.509Z,6.00
2022-08-18T09:28:00.102Z,6.20
2022-08-18T09:28:41.105Z,5.10
2022-08-18T09:29:44.172Z,6.00
2022-08-18T09:30:40.732Z,6.10
2022-08-18T09:31:41.044Z,5.70
2022-08-18T09:32:41.276Z,5.70
2022-08-18T09:33:41.937Z,5.70
2022-08-18T09:34:41.854Z,6.20
2022-08-18T09:35:42.137Z,6.40
2022-08-18T09:36:42.490Z,6.10
2022-08-18T09:37:42.796Z,6.40
2022-08-18T09:38:43.087Z,5.60
2022-08-18T09:39:43.478Z,5.40
2022-08-18T09:41:45.008Z,5.60
2022-08-18T09:42:49.700Z,5.80
2022-08-18T09:43:45.622Z,5.70
2022-08-18T09:44:44.926Z,5.90
2022-08-18T09:45:45.235Z,5.70
2022-08-18T09:46:45.568Z,5.30
2022-08-18T09:47:48.014Z,5.60
2022-08-18T09:48:46.902Z,5.60
2022-08-18T09:49:47.951Z,5.30
2022-08-18T09:50:47.572Z,5.50
2022-08-18T09:51:47.103Z,4.90
2022-08-18T09:52:47.352Z,5.30
2022-08-18T09:53:48.334Z,5.50
2022-08-18T09:54:48.187Z,5.40
2022-08-18T09:56:54.421Z,5.60
2022-08-18T09:57:51.691Z,5.90
2022-08-18T09:58:50.007Z,5.80
2022-08-18T09:59:49.327Z,5.60
2022-08-18T10:00:49.697Z,5.60
2022-08-18T10:01:52.604Z,5.60
2022-08-18T10:02:50.239Z,5.70
2022-08-18T10:03:50.530Z,4.90
2022-08-18T10:04:51.631Z,5.40
2022-08-18T10:05:51.078Z,5.40
2022-08-18T10:06:51.747Z,5.80
2022-08-18T10:07:51.660Z,5.70
2022-08-18T10:08:51.937Z,5.40
2022-08-18T10:09:52.194Z,5.30
2022-08-18T10:11:53.873Z,5.40
2022-08-18T10:12:53.505Z,5.10
2022-08-18T10:13:53.474Z,5.20
2022-08-18T10:14:53.716Z,5.40
2022-08-18T10:15:53.980Z,5.20
2022-08-18T10:17:55.578Z,4.90
2022-08-18T10:18:54.941Z,5.00
2022-08-18T10:19:55.175Z,5.10
2022-08-18T10:20:55.418Z,5.60
2022-08-18T10:21:55.701Z,5.30
2022-08-18T10:22:55.999Z,5.00
2022-08-18T10:24:14.720Z,4.90
2022-08-18T10:24:57.617Z,5.00
2022-08-18T10:25:59.281Z,4.60
2022-08-18T10:26:58.174Z,4.60
2022-08-18T10:27:57.486Z,5.00
2022-08-18T10:28:57.732Z,4.70
2022-08-18T10:29:58.047Z,4.70
2022-08-18T10:31:06.179Z,4.50
2022-08-18T10:31:59.619Z,4.90
2022-08-18T10:32:59.392Z,4.30
2022-08-18T10:33:59.193Z,5.00
2022-08-18T10:34:59.457Z,4.40
2022-08-18T10:35:59.708Z,4.40
2022-08-18T10:37:00.010Z,4.30
2022-08-18T10:38:00.296Z,5.10
2022-08-18T10:39:00.537Z,4.80
2022-08-18T10:40:00.827Z,4.80
2022-08-18T10:41:04.803Z,5.00
2022-08-18T10:42:02.368Z,4.80
2022-08-18T10:43:01.681Z,4.80
2022-08-18T10:44:07.338Z,4.80
2022-08-18T10:45:03.289Z,4.80
2022-08-18T10:46:27.734Z,4.80
2022-08-18T10:47:03.890Z,4.50
2022-08-18T10:48:04.092Z,4.70
2022-08-18T10:49:04.488Z,4.90
2022-08-18T10:50:03.718Z,4.70
2022-08-18T10:51:04.539Z,4.30
2022-08-18T10:52:04.315Z,4.20
2022-08-18T10:53:24.723Z,4.60
2022-08-18T10:54:05.800Z,4.60
2022-08-18T10:55:06.263Z,4.80
2022-08-18T10:56:06.410Z,4.40
2022-08-18T10:57:05.680Z,4.30
2022-08-18T10:58:05.933Z,4.50
2022-08-18T10:59:06.190Z,4.20
2022-08-18T11:00:07.541Z,4.40
2022-08-18T11:01:06.832Z,4.60
2022-08-18T11:02:07.093Z,4.10
2022-08-18T11:04:14.018Z,4.80
2022-08-18T11:05:08.991Z,4.30
2022-08-18T11:06:14.532Z,4.30
2022-08-18T11:07:09.534Z,4.00
2022-08-18T11:08:15.746Z,4.20
2022-08-18T11:09:10.104Z,4.00
2022-08-18T11:12:10.986Z,4.30
2022-08-18T11:13:10.442Z,3.90
2022-08-18T11:14:10.547Z,3.40
2022-08-18T11:15:23.011Z,3.70
2022-08-18T11:16:13.422Z,3.80
2022-08-18T11:17:11.432Z,3.60
2022-08-18T11:18:11.682Z,4.00
2022-08-18T11:19:11.941Z,4.20
2022-08-18T11:20:12.219Z,3.90
2022-08-18T11:21:13.668Z,4.20
2022-08-18T11:22:12.782Z,4.00
2022-08-18T11:23:14.145Z,4.20
2022-08-18T11:24:13.570Z,4.10
2022-08-18T11:25:13.624Z,3.70
2022-08-18T11:26:13.874Z,4.10
2022-08-18T11:27:15.590Z,4.00
2022-08-18T11:28:14.534Z,3.90
2022-08-18T11:29:14.783Z,3.70
2022-08-18T11:30:15.033Z,3.80
2022-08-18T11:31:15.383Z,3.80
2022-08-18T11:32:15.935Z,4.00
2022-08-18T11:33:15.853Z,3.90
2022-08-18T11:34:19.744Z,3.80
2022-08-18T11:35:16.539Z,4.20
2022-08-18T11:36:16.690Z,3.40
2022-08-18T11:37:17.798Z,3.70
2022-08-18T11:38:23.095Z,3.70
2022-08-18T11:39:18.570Z,3.80
2022-08-18T11:40:51.809Z,3.60
2022-08-18T11:41:19.317Z,3.50
2022-08-18T11:42:25.114Z,3.70
2022-08-18T11:43:21.322Z,3.80
2022-08-18T11:44:19.070Z,4.00
2022-08-18T11:45:19.791Z,4.00
2022-08-18T11:46:19.682Z,3.50
2022-08-18T11:47:27.550Z,4.00
2022-08-18T11:48:25.155Z,4.30
2022-08-18T11:50:21.693Z,3.70
2022-08-18T11:52:29.171Z,3.30
2022-08-18T11:53:24.092Z,3.10
2022-08-18T11:54:23.570Z,3.50
2022-08-18T11:56:30.560Z,3.70
2022-08-18T11:57:24.036Z,3.80
2022-08-18T11:58:23.178Z,3.50
2022-08-18T11:59:24.393Z,3.90
2022-08-18T12:00:24.647Z,3.50
2022-08-18T12:01:23.948Z,3.10
2022-08-18T12:02:24.212Z,3.60
2022-08-18T12:03:24.516Z,3.30
2022-08-18T12:04:24.741Z,3.50
2022-08-18T12:05:25.032Z,3.70
2022-08-18T12:06:27.126Z,3.70
2022-08-18T12:07:25.615Z,3.30
2022-08-18T12:08:54.514Z,3.40
2022-08-18T12:10:29.032Z,3.80
2022-08-18T12:11:27.913Z,3.30
2022-08-18T12:12:28.180Z,3.30
2022-08-18T12:13:27.285Z,3.50
2022-08-18T12:14:32.541Z,3.70
2022-08-18T12:15:29.653Z,3.20
2022-08-18T12:16:29.100Z,3.20
2022-08-18T12:17:28.420Z,3.20
2022-08-18T12:18:29.958Z,3.40
2022-08-18T12:19:28.921Z,2.90
2022-08-18T12:20:29.192Z,3.30
2022-08-18T12:21:29.442Z,3.30
2022-08-18T12:22:29.703Z,3.20
2022-08-18T12:23:38.315Z,2.90
2022-08-18T12:24:36.893Z,3.00
2022-08-18T12:25:31.504Z,3.00
2022-08-18T12:26:43.241Z,3.10
2022-08-18T12:27:32.330Z,2.90
2022-08-18T12:28:31.464Z,3.10
2022-08-18T12:29:36.673Z,2.80
2022-08-18T12:30:33.270Z,2.60
2022-08-18T12:31:47.552Z,2.70
2022-08-18T12:32:50.875Z,2.80
2022-08-18T12:33:34.472Z,2.80
2022-08-18T12:34:34.132Z,2.80
2022-08-18T12:35:33.431Z,2.50
2022-08-18T12:36:33.721Z,3.60
2022-08-18T12:37:58.264Z,2.80
2022-08-18T12:38:36.337Z,2.70
2022-08-18T12:39:34.570Z,2.60
2022-08-18T12:40:34.871Z,2.60
2022-08-18T12:41:35.123Z,2.60
2022-08-18T12:42:35.437Z,2.60
2022-08-18T12:43:35.631Z,2.50
2022-08-18T12:44:36.049Z,2.50
2022-08-18T12:45:37.508Z,3.10
2022-08-18T12:46:36.551Z,3.80
2022-08-18T12:47:40.415Z,3.40
2022-08-18T12:48:38.176Z,3.10
2022-08-18T12:49:37.508Z,3.00
2022-08-18T12:50:49.702Z,3.10
2022-08-18T12:51:39.145Z,3.50
2022-08-18T12:52:38.491Z,3.40
2022-08-18T12:53:59.556Z,3.30
2022-08-18T12:54:41.317Z,3.00
2022-08-18T12:55:43.599Z,3.20
2022-08-18T12:56:40.514Z,3.60
2022-08-18T12:57:52.093Z,3.30
2022-08-18T12:58:41.093Z,3.20
2022-08-18T12:59:40.321Z,3.50
2022-08-18T13:00:41.603Z,3.00
2022-08-18T13:01:40.931Z,3.80
2022-08-18T13:02:42.144Z,3.80
2022-08-18T13:03:42.437Z,4.00
2022-08-18T13:04:41.940Z,3.50
2022-08-18T13:05:41.971Z,3.20
2022-08-18T13:06:45.432Z,3.80
2022-08-18T13:07:43.487Z,3.10
2022-08-18T13:08:49.986Z,3.20
2022-08-18T13:09:53.636Z,3.40
2022-08-18T13:10:46.684Z,3.30
2022-08-18T13:11:43.574Z,3.40
2022-08-18T13:12:43.831Z,2.90
2022-08-18T13:13:44.107Z,3.40
2022-08-18T13:14:44.494Z,3.40
2022-08-18T13:15:58.273Z,3.30
2022-08-18T13:16:54.714Z,4.00
2022-08-18T13:17:46.155Z,4.30
2022-08-18T13:18:45.362Z,3.40
2022-08-18T13:19:45.683Z,3.30
2022-08-18T13:20:45.962Z,3.50
2022-08-18T13:21:47.166Z,3.20
2022-08-18T13:22:46.506Z,3.40
2022-08-18T13:23:46.838Z,3.50
2022-08-18T13:24:47.043Z,2.90
2022-08-18T13:25:47.315Z,3.10
2022-08-18T13:26:47.588Z,3.20
2022-08-18T13:27:48.137Z,3.60
2022-08-18T13:28:50.062Z,3.20
2022-08-18T13:29:51.023Z,3.30
2022-08-18T13:30:48.840Z,3.20
2022-08-18T13:31:55.433Z,2.80
2022-08-18T13:32:59.210Z,3.40
2022-08-18T13:33:56.774Z,3.20
2022-08-18T13:34:50.934Z,2.70
2022-08-18T13:35:54.119Z,3.10